sensor_id;sensor_type;location;lat;lon;timestamp;P1;durP1;ratioP1;P2;durP2;ratioP2
72864;SDS011;61000;48.120;11.548;2024-01-30T00:01:49;12.13;;;7.80;;
72864;SDS011;61000;48.120;11.548;2024-01-30T00:04:16;13.32;;;7.57;;
72864;SDS011;61000;48.120;11.548;2024-01-30T00:06:45;9.93;;;7.10;;
72864;SDS011;61000;48.120;11.548;2024-01-30T00:09:21;10.75;;;7.00;;
72864;SDS011;61000;48.120;11.548;2024-01-30T00:11:54;10.98;;;7.45;;
72864;SDS011;61000;48.120;11.548;2024-01-30T00:14:21;10.60;;;6.88;;
72864;SDS011;61000;48.120;11.548;2024-01-30T00:16:48;10.00;;;7.03;;
72864;SDS011;61000;48.120;11.548;2024-01-30T00:19:15;11.02;;;7.32;;
72864;SDS011;61000;48.120;11.548;2024-01-30T00:21:42;14.15;;;7.85;;
72864;SDS011;61000;48.120;11.548;2024-01-30T00:24:09;12.40;;;7.30;;
72864;SDS011;61000;48.120;11.548;2024-01-30T00:26:37;9.48;;;6.28;;
72864;SDS011;61000;48.120;11.548;2024-01-30T00:29:04;10.55;;;6.65;;
72864;SDS011;61000;48.120;11.548;2024-01-30T00:31:31;12.00;;;7.20;;
72864;SDS011;61000;48.120;11.548;2024-01-30T00:33:58;9.63;;;7.20;;
72864;SDS011;61000;48.120;11.548;2024-01-30T00:36:33;11.32;;;7.20;;
72864;SDS011;61000;48.120;11.548;2024-01-30T00:39:00;12.52;;;7.43;;
72864;SDS011;61000;48.120;11.548;2024-01-30T00:41:31;12.18;;;7.95;;
72864;SDS011;61000;48.120;11.548;2024-01-30T00:43:59;10.50;;;6.50;;
72864;SDS011;61000;48.120;11.548;2024-01-30T00:46:26;11.68;;;7.25;;
72864;SDS011;61000;48.120;11.548;2024-01-30T00:48:53;11.75;;;7.80;;
72864;SDS011;61000;48.120;11.548;2024-01-30T00:51:19;11.82;;;7.05;;
72864;SDS011;61000;48.120;11.548;2024-01-30T00:53:46;10.73;;;7.60;;
72864;SDS011;61000;48.120;11.548;2024-01-30T00:56:13;13.13;;;8.00;;
72864;SDS011;61000;48.120;11.548;2024-01-30T00:58:43;9.63;;;7.25;;
72864;SDS011;61000;48.120;11.548;2024-01-30T01:01:11;12.10;;;7.07;;
72864;SDS011;61000;48.120;11.548;2024-01-30T01:03:38;10.05;;;6.78;;
72864;SDS011;61000;48.120;11.548;2024-01-30T01:06:06;11.15;;;6.68;;
72864;SDS011;61000;48.120;11.548;2024-01-30T01:08:33;10.25;;;6.50;;
72864;SDS011;61000;48.120;11.548;2024-01-30T01:10:59;9.27;;;6.47;;
72864;SDS011;61000;48.120;11.548;2024-01-30T01:13:26;10.77;;;7.82;;
72864;SDS011;61000;48.120;11.548;2024-01-30T01:15:53;8.98;;;6.43;;
72864;SDS011;61000;48.120;11.548;2024-01-30T01:18:21;11.23;;;6.65;;
72864;SDS011;61000;48.120;11.548;2024-01-30T01:20:48;9.07;;;6.63;;
72864;SDS011;61000;48.120;11.548;2024-01-30T01:23:15;11.18;;;6.85;;
72864;SDS011;61000;48.120;11.548;2024-01-30T01:25:42;11.48;;;7.10;;
72864;SDS011;61000;48.120;11.548;2024-01-30T01:28:09;9.32;;;6.82;;
72864;SDS011;61000;48.120;11.548;2024-01-30T01:30:36;11.48;;;6.55;;
72864;SDS011;61000;48.120;11.548;2024-01-30T01:33:04;10.60;;;6.80;;
72864;SDS011;61000;48.120;11.548;2024-01-30T01:35:33;14.95;;;7.10;;
72864;SDS011;61000;48.120;11.548;2024-01-30T01:38:00;11.20;;;7.40;;
72864;SDS011;61000;48.120;11.548;2024-01-30T01:40:27;11.20;;;6.55;;
72864;SDS011;61000;48.120;11.548;2024-01-30T01:42:56;12.07;;;6.97;;
72864;SDS011;61000;48.120;11.548;2024-01-30T01:45:23;9.27;;;7.18;;
72864;SDS011;61000;48.120;11.548;2024-01-30T01:47:50;12.05;;;6.45;;
72864;SDS011;61000;48.120;11.548;2024-01-30T01:50:17;8.50;;;6.57;;
72864;SDS011;61000;48.120;11.548;2024-01-30T01:52:47;9.10;;;6.30;;
72864;SDS011;61000;48.120;11.548;2024-01-30T01:55:14;11.73;;;6.63;;
72864;SDS011;61000;48.120;11.548;2024-01-30T01:57:42;11.75;;;6.65;;
72864;SDS011;61000;48.120;11.548;2024-01-30T02:00:10;11.40;;;6.75;;
72864;SDS011;61000;48.120;11.548;2024-01-30T02:02:38;9.23;;;6.20;;
72864;SDS011;61000;48.120;11.548;2024-01-30T02:05:05;8.48;;;6.28;;
72864;SDS011;61000;48.120;11.548;2024-01-30T02:07:34;10.00;;;7.07;;
72864;SDS011;61000;48.120;11.548;2024-01-30T02:10:02;12.05;;;6.68;;
72864;SDS011;61000;48.120;11.548;2024-01-30T02:12:29;12.27;;;6.70;;
72864;SDS011;61000;48.120;11.548;2024-01-30T02:14:56;9.20;;;6.97;;
72864;SDS011;61000;48.120;11.548;2024-01-30T02:17:23;8.15;;;6.75;;
72864;SDS011;61000;48.120;11.548;2024-01-30T02:19:51;10.82;;;6.45;;
72864;SDS011;61000;48.120;11.548;2024-01-30T02:22:19;16.35;;;6.90;;
72864;SDS011;61000;48.120;11.548;2024-01-30T02:24:47;8.55;;;6.30;;
72864;SDS011;61000;48.120;11.548;2024-01-30T02:27:14;9.18;;;6.13;;
72864;SDS011;61000;48.120;11.548;2024-01-30T02:29:41;8.63;;;6.53;;
72864;SDS011;61000;48.120;11.548;2024-01-30T02:32:08;9.82;;;6.53;;
72864;SDS011;61000;48.120;11.548;2024-01-30T02:34:35;7.85;;;6.35;;
72864;SDS011;61000;48.120;11.548;2024-01-30T02:37:01;8.73;;;5.95;;
72864;SDS011;61000;48.120;11.548;2024-01-30T02:39:30;10.05;;;6.65;;
72864;SDS011;61000;48.120;11.548;2024-01-30T02:41:56;9.40;;;6.25;;
72864;SDS011;61000;48.120;11.548;2024-01-30T02:44:23;8.63;;;6.53;;
72864;SDS011;61000;48.120;11.548;2024-01-30T02:46:50;11.23;;;6.93;;
72864;SDS011;61000;48.120;11.548;2024-01-30T02:49:19;8.48;;;5.97;;
72864;SDS011;61000;48.120;11.548;2024-01-30T02:51:46;14.27;;;6.85;;
72864;SDS011;61000;48.120;11.548;2024-01-30T02:54:13;9.38;;;6.20;;
72864;SDS011;61000;48.120;11.548;2024-01-30T02:56:41;12.77;;;7.03;;
72864;SDS011;61000;48.120;11.548;2024-01-30T02:59:08;11.02;;;6.55;;
72864;SDS011;61000;48.120;11.548;2024-01-30T03:01:42;10.40;;;6.50;;
72864;SDS011;61000;48.120;11.548;2024-01-30T03:04:09;7.10;;;6.07;;
72864;SDS011;61000;48.120;11.548;2024-01-30T03:06:36;9.38;;;6.78;;
72864;SDS011;61000;48.120;11.548;2024-01-30T03:09:03;11.68;;;6.65;;
72864;SDS011;61000;48.120;11.548;2024-01-30T03:11:30;9.35;;;6.07;;
72864;SDS011;61000;48.120;11.548;2024-01-30T03:13:58;8.73;;;5.93;;
72864;SDS011;61000;48.120;11.548;2024-01-30T03:16:25;9.20;;;6.03;;
72864;SDS011;61000;48.120;11.548;2024-01-30T03:18:52;8.10;;;6.35;;
72864;SDS011;61000;48.120;11.548;2024-01-30T03:21:18;9.07;;;6.32;;
72864;SDS011;61000;48.120;11.548;2024-01-30T03:23:45;11.40;;;6.50;;
72864;SDS011;61000;48.120;11.548;2024-01-30T03:26:12;9.63;;;6.65;;
72864;SDS011;61000;48.120;11.548;2024-01-30T03:28:40;8.05;;;5.65;;
72864;SDS011;61000;48.120;11.548;2024-01-30T03:31:08;8.13;;;6.38;;
72864;SDS011;61000;48.120;11.548;2024-01-30T03:33:36;7.38;;;5.28;;
72864;SDS011;61000;48.120;11.548;2024-01-30T03:36:04;11.90;;;5.72;;
72864;SDS011;61000;48.120;11.548;2024-01-30T03:38:31;7.30;;;6.22;;
72864;SDS011;61000;48.120;11.548;2024-01-30T03:40:58;9.35;;;6.38;;
72864;SDS011;61000;48.120;11.548;2024-01-30T03:43:25;7.53;;;5.47;;
72864;SDS011;61000;48.120;11.548;2024-01-30T03:45:52;7.50;;;5.53;;
72864;SDS011;61000;48.120;11.548;2024-01-30T03:48:21;7.85;;;5.57;;
72864;SDS011;61000;48.120;11.548;2024-01-30T03:50:48;7.80;;;6.20;;
72864;SDS011;61000;48.120;11.548;2024-01-30T03:53:15;7.07;;;6.13;;
72864;SDS011;61000;48.120;11.548;2024-01-30T03:55:41;8.95;;;5.75;;
72864;SDS011;61000;48.120;11.548;2024-01-30T03:58:08;10.75;;;5.93;;
72864;SDS011;61000;48.120;11.548;2024-01-30T04:00:35;8.07;;;5.25;;
72864;SDS011;61000;48.120;11.548;2024-01-30T04:03:04;6.80;;;5.53;;
72864;SDS011;61000;48.120;11.548;2024-01-30T04:05:32;8.32;;;5.25;;
72864;SDS011;61000;48.120;11.548;2024-01-30T04:07:59;6.90;;;4.90;;
72864;SDS011;61000;48.120;11.548;2024-01-30T04:10:26;7.07;;;5.40;;
72864;SDS011;61000;48.120;11.548;2024-01-30T04:12:53;7.15;;;5.03;;
72864;SDS011;61000;48.120;11.548;2024-01-30T04:15:20;8.02;;;5.40;;
72864;SDS011;61000;48.120;11.548;2024-01-30T04:17:47;7.43;;;5.03;;
72864;SDS011;61000;48.120;11.548;2024-01-30T04:20:14;6.82;;;5.00;;
72864;SDS011;61000;48.120;11.548;2024-01-30T04:22:44;6.65;;;5.00;;
72864;SDS011;61000;48.120;11.548;2024-01-30T04:25:11;5.32;;;4.82;;
72864;SDS011;61000;48.120;11.548;2024-01-30T04:27:38;7.78;;;4.90;;
72864;SDS011;61000;48.120;11.548;2024-01-30T04:30:05;6.43;;;4.68;;
72864;SDS011;61000;48.120;11.548;2024-01-30T04:32:33;6.45;;;4.90;;
72864;SDS011;61000;48.120;11.548;2024-01-30T04:34:59;6.03;;;5.00;;
72864;SDS011;61000;48.120;11.548;2024-01-30T04:37:26;6.57;;;4.80;;
72864;SDS011;61000;48.120;11.548;2024-01-30T04:39:55;11.95;;;6.07;;
72864;SDS011;61000;48.120;11.548;2024-01-30T04:42:22;6.90;;;5.25;;
72864;SDS011;61000;48.120;11.548;2024-01-30T04:44:49;6.35;;;5.30;;
72864;SDS011;61000;48.120;11.548;2024-01-30T04:47:16;7.20;;;5.30;;
72864;SDS011;61000;48.120;11.548;2024-01-30T04:49:43;6.32;;;4.93;;
72864;SDS011;61000;48.120;11.548;2024-01-30T04:52:10;7.70;;;6.20;;
72864;SDS011;61000;48.120;11.548;2024-01-30T04:54:37;7.18;;;5.00;;
72864;SDS011;61000;48.120;11.548;2024-01-30T04:57:05;7.07;;;4.95;;
72864;SDS011;61000;48.120;11.548;2024-01-30T04:59:34;7.07;;;5.22;;
72864;SDS011;61000;48.120;11.548;2024-01-30T05:02:02;6.18;;;4.43;;
72864;SDS011;61000;48.120;11.548;2024-01-30T05:04:29;11.98;;;6.85;;
72864;SDS011;61000;48.120;11.548;2024-01-30T05:06:55;8.07;;;5.32;;
72864;SDS011;61000;48.120;11.548;2024-01-30T05:09:22;9.45;;;4.97;;
72864;SDS011;61000;48.120;11.548;2024-01-30T05:11:49;7.18;;;5.30;;
72864;SDS011;61000;48.120;11.548;2024-01-30T05:14:17;8.27;;;4.63;;
72864;SDS011;61000;48.120;11.548;2024-01-30T05:16:44;10.60;;;5.82;;
72864;SDS011;61000;48.120;11.548;2024-01-30T05:19:12;7.07;;;4.75;;
72864;SDS011;61000;48.120;11.548;2024-01-30T05:21:39;9.93;;;5.53;;
72864;SDS011;61000;48.120;11.548;2024-01-30T05:24:06;8.18;;;4.57;;
72864;SDS011;61000;48.120;11.548;2024-01-30T05:26:35;6.30;;;4.90;;
72864;SDS011;61000;48.120;11.548;2024-01-30T05:29:02;6.85;;;4.60;;
72864;SDS011;61000;48.120;11.548;2024-01-30T05:31:30;7.65;;;5.43;;
72864;SDS011;61000;48.120;11.548;2024-01-30T05:33:59;5.82;;;5.22;;
72864;SDS011;61000;48.120;11.548;2024-01-30T05:36:26;8.35;;;4.90;;
72864;SDS011;61000;48.120;11.548;2024-01-30T05:38:53;8.52;;;5.00;;
72864;SDS011;61000;48.120;11.548;2024-01-30T05:41:20;9.80;;;5.72;;
72864;SDS011;61000;48.120;11.548;2024-01-30T05:43:47;8.15;;;5.88;;
72864;SDS011;61000;48.120;11.548;2024-01-30T05:46:14;8.40;;;5.32;;
72864;SDS011;61000;48.120;11.548;2024-01-30T05:48:42;8.07;;;5.80;;
72864;SDS011;61000;48.120;11.548;2024-01-30T05:51:09;5.72;;;5.03;;
72864;SDS011;61000;48.120;11.548;2024-01-30T05:53:36;9.35;;;5.38;;
72864;SDS011;61000;48.120;11.548;2024-01-30T05:56:03;5.85;;;4.88;;
72864;SDS011;61000;48.120;11.548;2024-01-30T05:58:31;6.97;;;5.32;;
72864;SDS011;61000;48.120;11.548;2024-01-30T06:00:57;6.50;;;5.63;;
72864;SDS011;61000;48.120;11.548;2024-01-30T06:03:24;6.13;;;5.07;;
72864;SDS011;61000;48.120;11.548;2024-01-30T06:05:52;6.80;;;5.10;;
72864;SDS011;61000;48.120;11.548;2024-01-30T06:08:19;10.25;;;5.20;;
72864;SDS011;61000;48.120;11.548;2024-01-30T06:10:46;8.90;;;5.38;;
72864;SDS011;61000;48.120;11.548;2024-01-30T06:13:14;8.32;;;4.90;;
72864;SDS011;61000;48.120;11.548;2024-01-30T06:15:41;11.32;;;5.50;;
72864;SDS011;61000;48.120;11.548;2024-01-30T06:18:07;7.32;;;5.18;;
72864;SDS011;61000;48.120;11.548;2024-01-30T06:20:34;8.95;;;5.85;;
72864;SDS011;61000;48.120;11.548;2024-01-30T06:23:03;10.10;;;5.28;;
72864;SDS011;61000;48.120;11.548;2024-01-30T06:25:30;10.50;;;5.25;;
72864;SDS011;61000;48.120;11.548;2024-01-30T06:27:57;14.30;;;6.00;;
72864;SDS011;61000;48.120;11.548;2024-01-30T06:30:23;14.63;;;6.32;;
72864;SDS011;61000;48.120;11.548;2024-01-30T06:32:50;11.35;;;6.03;;
72864;SDS011;61000;48.120;11.548;2024-01-30T06:35:17;13.30;;;5.78;;
72864;SDS011;61000;48.120;11.548;2024-01-30T06:37:44;23.92;;;6.45;;
72864;SDS011;61000;48.120;11.548;2024-01-30T06:40:13;10.48;;;5.93;;
72864;SDS011;61000;48.120;11.548;2024-01-30T06:42:40;14.82;;;5.95;;
72864;SDS011;61000;48.120;11.548;2024-01-30T06:45:07;10.27;;;5.75;;
72864;SDS011;61000;48.120;11.548;2024-01-30T06:47:34;12.07;;;5.97;;
72864;SDS011;61000;48.120;11.548;2024-01-30T06:50:01;11.07;;;5.40;;
72864;SDS011;61000;48.120;11.548;2024-01-30T06:52:28;14.10;;;5.40;;
72864;SDS011;61000;48.120;11.548;2024-01-30T06:54:55;11.48;;;5.20;;
72864;SDS011;61000;48.120;11.548;2024-01-30T06:57:23;11.38;;;5.00;;
72864;SDS011;61000;48.120;11.548;2024-01-30T06:59:56;8.40;;;4.78;;
72864;SDS011;61000;48.120;11.548;2024-01-30T07:02:23;13.55;;;5.28;;
72864;SDS011;61000;48.120;11.548;2024-01-30T07:04:50;12.18;;;5.95;;
72864;SDS011;61000;48.120;11.548;2024-01-30T07:07:17;11.27;;;5.72;;
72864;SDS011;61000;48.120;11.548;2024-01-30T07:09:44;41.17;;;19.45;;
72864;SDS011;61000;48.120;11.548;2024-01-30T07:12:12;23.40;;;6.38;;
72864;SDS011;61000;48.120;11.548;2024-01-30T07:14:40;15.25;;;6.82;;
72864;SDS011;61000;48.120;11.548;2024-01-30T07:17:07;22.30;;;7.32;;
72864;SDS011;61000;48.120;11.548;2024-01-30T07:19:34;20.70;;;7.38;;
72864;SDS011;61000;48.120;11.548;2024-01-30T07:22:01;15.73;;;5.93;;
72864;SDS011;61000;48.120;11.548;2024-01-30T07:24:28;14.68;;;6.45;;
72864;SDS011;61000;48.120;11.548;2024-01-30T07:26:55;9.48;;;4.90;;
72864;SDS011;61000;48.120;11.548;2024-01-30T07:29:22;9.45;;;5.40;;
72864;SDS011;61000;48.120;11.548;2024-01-30T07:31:50;13.20;;;5.20;;
72864;SDS011;61000;48.120;11.548;2024-01-30T07:34:17;8.90;;;4.63;;
72864;SDS011;61000;48.120;11.548;2024-01-30T07:36:44;6.10;;;4.13;;
72864;SDS011;61000;48.120;11.548;2024-01-30T07:39:12;9.93;;;4.80;;
72864;SDS011;61000;48.120;11.548;2024-01-30T07:41:39;9.13;;;4.13;;
72864;SDS011;61000;48.120;11.548;2024-01-30T07:44:06;8.48;;;4.18;;
72864;SDS011;61000;48.120;11.548;2024-01-30T07:46:33;5.97;;;4.00;;
72864;SDS011;61000;48.120;11.548;2024-01-30T07:49:01;6.22;;;4.30;;
72864;SDS011;61000;48.120;11.548;2024-01-30T07:51:28;7.47;;;4.50;;
72864;SDS011;61000;48.120;11.548;2024-01-30T07:53:57;8.25;;;4.00;;
72864;SDS011;61000;48.120;11.548;2024-01-30T07:56:23;8.95;;;4.50;;
72864;SDS011;61000;48.120;11.548;2024-01-30T07:58:50;7.28;;;4.30;;
72864;SDS011;61000;48.120;11.548;2024-01-30T08:01:18;5.93;;;4.13;;
72864;SDS011;61000;48.120;11.548;2024-01-30T08:03:45;6.68;;;4.10;;
72864;SDS011;61000;48.120;11.548;2024-01-30T08:06:13;7.30;;;3.88;;
72864;SDS011;61000;48.120;11.548;2024-01-30T08:08:40;5.13;;;3.80;;
72864;SDS011;61000;48.120;11.548;2024-01-30T08:11:07;6.43;;;4.15;;
72864;SDS011;61000;48.120;11.548;2024-01-30T08:13:34;5.90;;;3.85;;
72864;SDS011;61000;48.120;11.548;2024-01-30T08:16:00;7.35;;;3.95;;
72864;SDS011;61000;48.120;11.548;2024-01-30T08:18:27;9.20;;;4.22;;
72864;SDS011;61000;48.120;11.548;2024-01-30T08:20:54;5.85;;;3.97;;
72864;SDS011;61000;48.120;11.548;2024-01-30T08:23:22;6.88;;;4.00;;
72864;SDS011;61000;48.120;11.548;2024-01-30T08:25:49;9.50;;;5.15;;
72864;SDS011;61000;48.120;11.548;2024-01-30T08:28:16;7.95;;;5.25;;
72864;SDS011;61000;48.120;11.548;2024-01-30T08:30:43;8.65;;;5.57;;
72864;SDS011;61000;48.120;11.548;2024-01-30T08:33:10;7.72;;;4.53;;
72864;SDS011;61000;48.120;11.548;2024-01-30T08:35:37;9.43;;;5.13;;
72864;SDS011;61000;48.120;11.548;2024-01-30T08:38:04;8.10;;;4.50;;
72864;SDS011;61000;48.120;11.548;2024-01-30T08:40:32;7.55;;;4.63;;
72864;SDS011;61000;48.120;11.548;2024-01-30T08:43:00;6.75;;;4.70;;
72864;SDS011;61000;48.120;11.548;2024-01-30T08:45:26;12.45;;;5.35;;
72864;SDS011;61000;48.120;11.548;2024-01-30T08:47:53;10.77;;;5.50;;
72864;SDS011;61000;48.120;11.548;2024-01-30T08:50:20;14.85;;;5.65;;
72864;SDS011;61000;48.120;11.548;2024-01-30T08:52:47;12.48;;;6.00;;
72864;SDS011;61000;48.120;11.548;2024-01-30T08:55:14;10.93;;;5.43;;
72864;SDS011;61000;48.120;11.548;2024-01-30T08:57:42;12.90;;;6.38;;
72864;SDS011;61000;48.120;11.548;2024-01-30T09:00:09;10.35;;;5.85;;
72864;SDS011;61000;48.120;11.548;2024-01-30T09:02:37;12.20;;;7.10;;
72864;SDS011;61000;48.120;11.548;2024-01-30T09:05:04;17.15;;;6.57;;
72864;SDS011;61000;48.120;11.548;2024-01-30T09:07:31;17.60;;;6.95;;
72864;SDS011;61000;48.120;11.548;2024-01-30T09:09:58;24.60;;;7.68;;
72864;SDS011;61000;48.120;11.548;2024-01-30T09:12:24;12.73;;;6.20;;
72864;SDS011;61000;48.120;11.548;2024-01-30T09:14:53;12.88;;;6.53;;
72864;SDS011;61000;48.120;11.548;2024-01-30T09:17:20;12.85;;;8.73;;
72864;SDS011;61000;48.120;11.548;2024-01-30T09:19:47;19.65;;;7.72;;
72864;SDS011;61000;48.120;11.548;2024-01-30T09:22:13;16.70;;;5.90;;
72864;SDS011;61000;48.120;11.548;2024-01-30T09:24:40;16.05;;;5.72;;
72864;SDS011;61000;48.120;11.548;2024-01-30T09:27:07;12.18;;;5.47;;
72864;SDS011;61000;48.120;11.548;2024-01-30T09:29:35;9.90;;;5.80;;
72864;SDS011;61000;48.120;11.548;2024-01-30T09:32:03;22.00;;;6.55;;
72864;SDS011;61000;48.120;11.548;2024-01-30T09:34:31;14.13;;;6.05;;
72864;SDS011;61000;48.120;11.548;2024-01-30T09:36:58;13.32;;;6.60;;
72864;SDS011;61000;48.120;11.548;2024-01-30T09:39:25;23.40;;;6.97;;
72864;SDS011;61000;48.120;11.548;2024-01-30T09:41:54;13.60;;;5.80;;
72864;SDS011;61000;48.120;11.548;2024-01-30T09:44:28;16.90;;;5.57;;
72864;SDS011;61000;48.120;11.548;2024-01-30T09:46:55;16.63;;;5.60;;
72864;SDS011;61000;48.120;11.548;2024-01-30T09:49:25;21.50;;;6.72;;
72864;SDS011;61000;48.120;11.548;2024-01-30T09:51:52;23.10;;;5.97;;
72864;SDS011;61000;48.120;11.548;2024-01-30T09:54:20;14.45;;;6.25;;
72864;SDS011;61000;48.120;11.548;2024-01-30T09:56:48;13.60;;;4.68;;
72864;SDS011;61000;48.120;11.548;2024-01-30T09:59:15;17.83;;;5.30;;
72864;SDS011;61000;48.120;11.548;2024-01-30T10:01:42;11.10;;;5.05;;
72864;SDS011;61000;48.120;11.548;2024-01-30T10:04:09;9.45;;;4.85;;
72864;SDS011;61000;48.120;11.548;2024-01-30T10:06:38;20.73;;;5.30;;
72864;SDS011;61000;48.120;11.548;2024-01-30T10:09:07;13.60;;;4.07;;
72864;SDS011;61000;48.120;11.548;2024-01-30T10:11:34;11.02;;;4.57;;
72864;SDS011;61000;48.120;11.548;2024-01-30T10:14:02;8.63;;;3.65;;
72864;SDS011;61000;48.120;11.548;2024-01-30T10:16:29;7.25;;;3.85;;
72864;SDS011;61000;48.120;11.548;2024-01-30T10:18:56;10.27;;;4.43;;
72864;SDS011;61000;48.120;11.548;2024-01-30T10:21:22;13.23;;;4.93;;
72864;SDS011;61000;48.120;11.548;2024-01-30T10:23:51;9.02;;;4.35;;
72864;SDS011;61000;48.120;11.548;2024-01-30T10:26:18;7.95;;;3.50;;
72864;SDS011;61000;48.120;11.548;2024-01-30T10:28:45;4.90;;;3.35;;
72864;SDS011;61000;48.120;11.548;2024-01-30T10:31:16;8.00;;;3.88;;
72864;SDS011;61000;48.120;11.548;2024-01-30T10:33:43;7.57;;;4.03;;
72864;SDS011;61000;48.120;11.548;2024-01-30T10:36:10;4.60;;;3.22;;
72864;SDS011;61000;48.120;11.548;2024-01-30T10:38:41;9.93;;;3.67;;
72864;SDS011;61000;48.120;11.548;2024-01-30T10:41:12;8.93;;;3.80;;
72864;SDS011;61000;48.120;11.548;2024-01-30T10:43:41;8.82;;;3.47;;
72864;SDS011;61000;48.120;11.548;2024-01-30T10:46:14;6.50;;;3.88;;
72864;SDS011;61000;48.120;11.548;2024-01-30T10:48:46;8.15;;;4.18;;
72864;SDS011;61000;48.120;11.548;2024-01-30T10:51:23;12.07;;;5.22;;
72864;SDS011;61000;48.120;11.548;2024-01-30T10:53:52;12.80;;;4.55;;
72864;SDS011;61000;48.120;11.548;2024-01-30T10:56:21;8.82;;;4.15;;
72864;SDS011;61000;48.120;11.548;2024-01-30T10:58:49;15.63;;;5.40;;
72864;SDS011;61000;48.120;11.548;2024-01-30T11:01:17;13.18;;;4.95;;
72864;SDS011;61000;48.120;11.548;2024-01-30T11:03:45;11.80;;;4.28;;
72864;SDS011;61000;48.120;11.548;2024-01-30T11:06:12;6.25;;;3.10;;
72864;SDS011;61000;48.120;11.548;2024-01-30T11:08:43;6.28;;;3.08;;
72864;SDS011;61000;48.120;11.548;2024-01-30T11:11:10;9.65;;;3.15;;
72864;SDS011;61000;48.120;11.548;2024-01-30T11:13:39;2.63;;;2.33;;
72864;SDS011;61000;48.120;11.548;2024-01-30T11:16:09;7.95;;;3.50;;
72864;SDS011;61000;48.120;11.548;2024-01-30T11:18:38;8.20;;;3.75;;
72864;SDS011;61000;48.120;11.548;2024-01-30T11:21:05;8.80;;;3.83;;
72864;SDS011;61000;48.120;11.548;2024-01-30T11:23:33;5.18;;;2.58;;
72864;SDS011;61000;48.120;11.548;2024-01-30T11:26:01;21.48;;;5.40;;
72864;SDS011;61000;48.120;11.548;2024-01-30T11:28:33;6.15;;;3.17;;
72864;SDS011;61000;48.120;11.548;2024-01-30T11:31:05;4.97;;;3.10;;
72864;SDS011;61000;48.120;11.548;2024-01-30T11:33:33;4.95;;;2.63;;
72864;SDS011;61000;48.120;11.548;2024-01-30T11:36:00;4.03;;;2.30;;
72864;SDS011;61000;48.120;11.548;2024-01-30T11:38:27;1.83;;;1.73;;
72864;SDS011;61000;48.120;11.548;2024-01-30T11:40:55;4.30;;;2.38;;
72864;SDS011;61000;48.120;11.548;2024-01-30T11:43:23;13.98;;;3.30;;
72864;SDS011;61000;48.120;11.548;2024-01-30T11:45:50;3.88;;;2.80;;
72864;SDS011;61000;48.120;11.548;2024-01-30T11:48:19;3.50;;;2.53;;
72864;SDS011;61000;48.120;11.548;2024-01-30T11:50:46;6.22;;;3.10;;
72864;SDS011;61000;48.120;11.548;2024-01-30T11:53:13;3.63;;;2.42;;
72864;SDS011;61000;48.120;11.548;2024-01-30T11:55:40;5.18;;;2.80;;
72864;SDS011;61000;48.120;11.548;2024-01-30T11:58:07;7.35;;;2.90;;
72864;SDS011;61000;48.120;11.548;2024-01-30T12:00:34;5.57;;;2.80;;
72864;SDS011;61000;48.120;11.548;2024-01-30T12:03:00;6.32;;;2.35;;
72864;SDS011;61000;48.120;11.548;2024-01-30T12:05:29;9.02;;;3.13;;
72864;SDS011;61000;48.120;11.548;2024-01-30T12:07:56;5.63;;;2.70;;
72864;SDS011;61000;48.120;11.548;2024-01-30T12:10:24;5.32;;;3.38;;
72864;SDS011;61000;48.120;11.548;2024-01-30T12:12:52;11.73;;;3.42;;
72864;SDS011;61000;48.120;11.548;2024-01-30T12:15:21;4.13;;;3.17;;
72864;SDS011;61000;48.120;11.548;2024-01-30T12:17:48;6.03;;;2.25;;
72864;SDS011;61000;48.120;11.548;2024-01-30T12:20:17;5.25;;;3.13;;
72864;SDS011;61000;48.120;11.548;2024-01-30T12:22:48;11.02;;;5.03;;
72864;SDS011;61000;48.120;11.548;2024-01-30T12:25:16;4.78;;;3.17;;
72864;SDS011;61000;48.120;11.548;2024-01-30T12:27:44;3.17;;;2.45;;
72864;SDS011;61000;48.120;11.548;2024-01-30T12:30:15;6.30;;;2.40;;
72864;SDS011;61000;48.120;11.548;2024-01-30T12:32:43;4.72;;;2.25;;
72864;SDS011;61000;48.120;11.548;2024-01-30T12:35:11;5.28;;;2.38;;
72864;SDS011;61000;48.120;11.548;2024-01-30T12:37:39;3.50;;;2.70;;
72864;SDS011;61000;48.120;11.548;2024-01-30T12:40:08;7.25;;;2.30;;
72864;SDS011;61000;48.120;11.548;2024-01-30T12:42:36;4.00;;;2.42;;
72864;SDS011;61000;48.120;11.548;2024-01-30T12:45:04;5.53;;;2.45;;
72864;SDS011;61000;48.120;11.548;2024-01-30T12:47:31;3.55;;;2.40;;
72864;SDS011;61000;48.120;11.548;2024-01-30T12:49:58;6.53;;;2.55;;
72864;SDS011;61000;48.120;11.548;2024-01-30T12:52:25;5.57;;;2.65;;
72864;SDS011;61000;48.120;11.548;2024-01-30T12:54:52;11.70;;;3.10;;
72864;SDS011;61000;48.120;11.548;2024-01-30T12:57:21;7.00;;;2.50;;
72864;SDS011;61000;48.120;11.548;2024-01-30T12:59:47;5.20;;;2.35;;
72864;SDS011;61000;48.120;11.548;2024-01-30T13:02:14;6.55;;;3.03;;
72864;SDS011;61000;48.120;11.548;2024-01-30T13:04:42;4.18;;;2.28;;
72864;SDS011;61000;48.120;11.548;2024-01-30T13:07:09;4.85;;;2.80;;
72864;SDS011;61000;48.120;11.548;2024-01-30T13:09:36;10.50;;;2.97;;
72864;SDS011;61000;48.120;11.548;2024-01-30T13:12:03;5.57;;;2.45;;
72864;SDS011;61000;48.120;11.548;2024-01-30T13:14:32;5.28;;;2.53;;
72864;SDS011;61000;48.120;11.548;2024-01-30T13:16:59;2.03;;;1.90;;
72864;SDS011;61000;48.120;11.548;2024-01-30T13:19:26;6.00;;;2.40;;
72864;SDS011;61000;48.120;11.548;2024-01-30T13:21:52;3.40;;;2.70;;
72864;SDS011;61000;48.120;11.548;2024-01-30T13:24:19;3.92;;;2.08;;
72864;SDS011;61000;48.120;11.548;2024-01-30T13:26:46;5.88;;;1.90;;
72864;SDS011;61000;48.120;11.548;2024-01-30T13:29:14;4.28;;;2.30;;
72864;SDS011;61000;48.120;11.548;2024-01-30T13:31:42;3.95;;;2.53;;
72864;SDS011;61000;48.120;11.548;2024-01-30T13:34:12;5.47;;;2.03;;
72864;SDS011;61000;48.120;11.548;2024-01-30T13:36:39;6.05;;;2.10;;
72864;SDS011;61000;48.120;11.548;2024-01-30T13:39:07;4.78;;;3.33;;
72864;SDS011;61000;48.120;11.548;2024-01-30T13:41:35;8.52;;;4.30;;
72864;SDS011;61000;48.120;11.548;2024-01-30T13:44:04;5.38;;;2.90;;
72864;SDS011;61000;48.120;11.548;2024-01-30T13:46:31;7.70;;;3.28;;
72864;SDS011;61000;48.120;11.548;2024-01-30T13:48:59;4.65;;;2.78;;
72864;SDS011;61000;48.120;11.548;2024-01-30T13:51:26;2.97;;;2.17;;
72864;SDS011;61000;48.120;11.548;2024-01-30T13:53:53;5.28;;;1.92;;
72864;SDS011;61000;48.120;11.548;2024-01-30T13:56:20;2.95;;;1.90;;
72864;SDS011;61000;48.120;11.548;2024-01-30T13:58:47;8.07;;;1.73;;
72864;SDS011;61000;48.120;11.548;2024-01-30T14:01:15;3.40;;;2.13;;
72864;SDS011;61000;48.120;11.548;2024-01-30T14:03:42;3.63;;;2.00;;
72864;SDS011;61000;48.120;11.548;2024-01-30T14:06:11;2.45;;;2.03;;
72864;SDS011;61000;48.120;11.548;2024-01-30T14:08:38;4.95;;;1.80;;
72864;SDS011;61000;48.120;11.548;2024-01-30T14:11:05;2.42;;;1.75;;
72864;SDS011;61000;48.120;11.548;2024-01-30T14:13:32;3.95;;;1.80;;
72864;SDS011;61000;48.120;11.548;2024-01-30T14:15:59;4.22;;;2.00;;
72864;SDS011;61000;48.120;11.548;2024-01-30T14:18:26;1.85;;;1.60;;
72864;SDS011;61000;48.120;11.548;2024-01-30T14:20:53;1.95;;;1.85;;
72864;SDS011;61000;48.120;11.548;2024-01-30T14:23:21;4.65;;;2.00;;
72864;SDS011;61000;48.120;11.548;2024-01-30T14:25:48;7.60;;;3.25;;
72864;SDS011;61000;48.120;11.548;2024-01-30T14:28:16;3.83;;;2.03;;
72864;SDS011;61000;48.120;11.548;2024-01-30T14:30:43;5.50;;;2.30;;
72864;SDS011;61000;48.120;11.548;2024-01-30T14:33:10;3.90;;;2.15;;